createdAt,value
2022-12-05T00:01:31.540Z,6.80
2022-12-05T00:04:04.182Z,10.50
2022-12-05T00:06:32.818Z,10.70
2022-12-05T00:08:59.884Z,14.10
2022-12-05T00:11:28.885Z,12.10
2022-12-05T00:13:57.405Z,19.20
2022-12-05T00:16:25.696Z,31.60
2022-12-05T00:18:53.717Z,40.50
2022-12-05T00:21:23.635Z,49.30
2022-12-05T00:23:51.290Z,49.40
2022-12-05T00:26:18.908Z,49.40
2022-12-05T00:28:45.857Z,41.70
2022-12-05T00:31:16.520Z,43.60
2022-12-05T00:33:44.553Z,37.60
2022-12-05T00:36:14.320Z,33.80
2022-12-05T00:38:42.187Z,43.50
2022-12-05T00:41:15.077Z,42.90
2022-12-05T00:43:42.021Z,44.00
2022-12-05T00:46:11.804Z,49.40
2022-12-05T00:48:38.738Z,37.70
2022-12-05T00:51:15.119Z,31.50
2022-12-05T00:53:42.938Z,28.20
2022-12-05T00:56:18.891Z,35.50
2022-12-05T00:58:46.435Z,26.60
2022-12-05T01:01:19.840Z,24.10
2022-12-05T01:03:47.508Z,16.90
2022-12-05T01:06:15.938Z,14.30
2022-12-05T01:08:42.973Z,1.50
2022-12-05T01:11:18.882Z,1.00
2022-12-05T01:13:46.814Z,1.00
2022-12-05T01:16:25.664Z,1.00
2022-12-05T01:18:52.881Z,1.00
2022-12-05T01:21:20.309Z,1.00
2022-12-05T01:23:47.391Z,1.00
2022-12-05T01:26:15.973Z,1.00
2022-12-05T01:28:43.547Z,1.00
2022-12-05T01:31:22.915Z,1.00
2022-12-05T01:33:50.262Z,1.00
2022-12-05T01:36:17.558Z,1.00
2022-12-05T01:38:44.821Z,1.00
2022-12-05T01:41:15.718Z,1.00
2022-12-05T01:44:07.087Z,1.00
2022-12-05T01:46:37.332Z,1.00
2022-12-05T01:49:09.328Z,1.00
2022-12-05T01:51:38.637Z,1.00
2022-12-05T01:54:06.606Z,1.00
2022-12-05T01:56:35.468Z,1.00
2022-12-05T01:59:04.886Z,1.00
2022-12-05T02:01:31.902Z,1.00
2022-12-05T02:03:59.495Z,1.00
2022-12-05T02:06:28.179Z,1.00
2022-12-05T02:08:55.314Z,1.00
2022-12-05T02:11:24.801Z,1.00
2022-12-05T02:14:48.379Z,1.00
2022-12-05T02:17:52.051Z,1.00
2022-12-05T02:21:03.584Z,1.00
2022-12-05T02:23:57.867Z,1.00
2022-12-05T02:26:36.622Z,1.00
2022-12-05T02:29:03.364Z,1.00
2022-12-05T02:31:40.741Z,1.00
2022-12-05T02:34:31.467Z,1.00
2022-12-05T02:37:08.077Z,1.00
2022-12-05T02:39:46.832Z,1.00
2022-12-05T02:42:21.632Z,1.00
2022-12-05T02:44:54.207Z,1.00
2022-12-05T02:47:26.185Z,1.00
2022-12-05T02:49:54.106Z,1.00
2022-12-05T02:52:22.493Z,1.00
2022-12-05T02:54:51.983Z,1.00
2022-12-05T02:57:20.920Z,1.00
2022-12-05T02:59:47.766Z,1.00
2022-12-05T03:02:48.652Z,1.00
2022-12-05T03:05:20.176Z,1.00
2022-12-05T03:07:50.023Z,1.00
2022-12-05T03:10:20.676Z,1.00
2022-12-05T03:12:53.267Z,1.00
2022-12-05T03:15:47.959Z,1.00
2022-12-05T03:18:24.236Z,1.00
2022-12-05T03:21:22.404Z,1.00
2022-12-05T03:23:54.850Z,1.00
2022-12-05T03:26:37.889Z,1.00
2022-12-05T03:29:38.624Z,1.00
2022-12-05T03:32:10.026Z,1.00
2022-12-05T03:34:43.013Z,1.00
2022-12-05T03:37:30.744Z,1.00
2022-12-05T03:40:09.241Z,1.00
2022-12-05T03:42:39.314Z,1.00
2022-12-05T03:45:13.624Z,1.00
2022-12-05T03:48:06.027Z,1.00
2022-12-05T03:50:37.660Z,1.00
2022-12-05T03:53:25.251Z,1.00
2022-12-05T03:56:19.468Z,1.00
2022-12-05T03:59:05.127Z,1.00
2022-12-05T04:01:34.669Z,1.00
2022-12-05T04:04:12.544Z,1.00
2022-12-05T04:06:43.706Z,1.00
2022-12-05T04:09:18.246Z,1.00
2022-12-05T04:11:57.712Z,1.00
2022-12-05T04:14:30.992Z,1.00
2022-12-05T04:17:03.326Z,1.00
2022-12-05T04:20:22.529Z,1.00
2022-12-05T04:22:49.925Z,1.00
2022-12-05T04:25:33.910Z,1.00
2022-12-05T04:28:16.731Z,1.00
2022-12-05T04:30:53.154Z,1.00
2022-12-05T04:33:40.923Z,1.00
2022-12-05T04:36:21.037Z,1.00
2022-12-05T04:38:59.892Z,1.00
2022-12-05T04:41:33.138Z,1.00
2022-12-05T04:44:04.455Z,1.00
2022-12-05T04:46:31.545Z,1.00
2022-12-05T04:49:02.964Z,1.00
2022-12-05T04:51:34.365Z,1.00
2022-12-05T04:54:08.406Z,1.00
2022-12-05T04:56:37.957Z,1.00
2022-12-05T04:59:05.208Z,1.00
2022-12-05T05:01:38.020Z,1.00
2022-12-05T05:04:14.375Z,1.00
2022-12-05T05:06:42.022Z,1.00
2022-12-05T05:09:10.190Z,1.00
2022-12-05T05:11:37.447Z,1.00
2022-12-05T05:14:04.952Z,1.00
2022-12-05T05:16:34.824Z,1.00
2022-12-05T05:19:02.100Z,1.00
2022-12-05T05:21:35.314Z,1.00
2022-12-05T05:24:03.060Z,1.00
2022-12-05T05:26:31.696Z,1.00
2022-12-05T05:28:59.205Z,1.00
2022-12-05T05:31:26.090Z,1.00
2022-12-05T05:33:54.525Z,1.00
2022-12-05T05:36:34.256Z,1.00
2022-12-05T05:39:02.588Z,1.00
2022-12-05T05:41:32.416Z,1.00
2022-12-05T05:43:59.795Z,6.80
2022-12-05T05:46:32.376Z,6.70
2022-12-05T05:48:59.650Z,7.40
2022-12-05T05:51:29.176Z,6.70
2022-12-05T05:53:57.963Z,11.00
2022-12-05T05:56:25.093Z,8.90
2022-12-05T05:58:59.909Z,6.70
2022-12-05T06:01:27.782Z,9.10
2022-12-05T06:03:54.850Z,3.50
2022-12-05T06:06:22.699Z,1.60
2022-12-05T06:08:50.079Z,2.70
2022-12-05T06:11:25.320Z,1.00
2022-12-05T06:14:01.121Z,1.60
2022-12-05T06:16:29.455Z,12.00
2022-12-05T06:18:56.450Z,6.70
2022-12-05T06:21:23.876Z,6.70
2022-12-05T06:23:51.224Z,6.70
2022-12-05T06:26:20.417Z,11.60
2022-12-05T06:28:47.505Z,11.80
2022-12-05T06:31:23.339Z,16.70
2022-12-05T06:33:50.861Z,16.80
2022-12-05T06:36:21.639Z,21.70
2022-12-05T06:38:48.864Z,26.60
2022-12-05T06:41:17.660Z,26.50
2022-12-05T06:43:44.599Z,31.70
2022-12-05T06:46:14.116Z,37.60
2022-12-05T06:48:41.084Z,49.40
2022-12-05T06:51:14.759Z,43.60
2022-12-05T06:53:42.910Z,48.20
2022-12-05T06:56:15.687Z,45.80
2022-12-05T06:58:48.058Z,49.40
2022-12-05T07:01:36.735Z,49.40
2022-12-05T07:04:04.688Z,49.40
2022-12-05T07:06:36.392Z,52.40
2022-12-05T07:09:04.435Z,54.00
2022-12-05T07:11:31.752Z,60.70
2022-12-05T07:13:58.727Z,53.30
2022-12-05T07:16:25.821Z,49.40
2022-12-05T07:18:52.686Z,49.40
2022-12-05T07:21:22.642Z,43.50
2022-12-05T07:23:52.810Z,49.40
2022-12-05T07:26:21.951Z,49.40
2022-12-05T07:28:50.167Z,49.40
2022-12-05T07:31:29.833Z,55.30
2022-12-05T07:33:56.821Z,63.50
2022-12-05T07:36:23.832Z,62.60
2022-12-05T07:38:56.714Z,55.00
2022-12-05T07:41:26.751Z,63.90
2022-12-05T07:43:55.509Z,49.50
2022-12-05T07:46:23.762Z,37.40
2022-12-05T07:48:51.289Z,43.50
2022-12-05T07:51:19.744Z,26.70
2022-12-05T07:53:52.766Z,26.70
2022-12-05T07:56:22.666Z,22.80
2022-12-05T07:58:50.432Z,26.90
2022-12-05T08:01:20.793Z,41.30
2022-12-05T08:03:48.538Z,43.50
2022-12-05T08:06:20.637Z,32.40
2022-12-05T08:08:51.327Z,31.60
2022-12-05T08:11:27.039Z,26.80
2022-12-05T08:13:54.563Z,13.50
2022-12-05T08:16:24.971Z,17.40
2022-12-05T08:19:00.630Z,32.00
2022-12-05T08:21:27.693Z,29.10
2022-12-05T08:23:55.046Z,26.70
2022-12-05T08:26:27.490Z,26.70
2022-12-05T08:28:57.335Z,24.40
2022-12-05T08:31:25.488Z,31.80
2022-12-05T08:33:57.313Z,31.80
2022-12-05T08:36:27.247Z,37.70
2022-12-05T08:39:04.370Z,28.80
2022-12-05T08:41:31.475Z,35.10
2022-12-05T08:44:01.462Z,16.90
2022-12-05T08:46:28.812Z,26.70
2022-12-05T08:48:55.768Z,21.80
2022-12-05T08:51:22.607Z,26.70
2022-12-05T08:53:49.488Z,31.90
2022-12-05T08:56:16.322Z,40.70
2022-12-05T08:58:43.218Z,49.70
2022-12-05T09:01:12.749Z,49.60
2022-12-05T09:03:46.060Z,45.60
2022-12-05T09:06:20.936Z,41.20
2022-12-05T09:08:48.631Z,26.80
2022-12-05T09:11:21.225Z,26.80
2022-12-05T09:13:48.982Z,24.60
2022-12-05T09:16:35.206Z,37.90
2022-12-05T09:19:04.515Z,37.80
2022-12-05T09:21:32.316Z,43.80
2022-12-05T09:24:00.005Z,46.70
2022-12-05T09:26:27.703Z,49.70
2022-12-05T09:28:54.587Z,37.90
2022-12-05T09:31:27.044Z,41.00
2022-12-05T09:33:54.327Z,38.00
2022-12-05T09:36:26.832Z,39.10
2022-12-05T09:38:55.163Z,35.00
2022-12-05T09:42:07.925Z,31.80
2022-12-05T09:44:56.639Z,27.80
2022-12-05T09:47:29.724Z,37.80
2022-12-05T09:49:58.981Z,44.90
2022-12-05T09:52:39.160Z,42.70
2022-12-05T09:55:18.344Z,31.90
2022-12-05T09:57:52.625Z,37.70
2022-12-05T10:00:19.988Z,60.80
2022-12-05T10:03:08.018Z,60.80
2022-12-05T10:05:43.798Z,55.20
2022-12-05T10:08:41.672Z,46.70
2022-12-05T10:11:21.619Z,55.00
2022-12-05T10:14:06.583Z,55.50
2022-12-05T10:16:45.566Z,52.00
2022-12-05T10:19:26.898Z,60.70
2022-12-05T10:22:02.707Z,65.90
2022-12-05T10:24:37.409Z,68.70
2022-12-05T10:27:07.130Z,71.20
2022-12-05T10:29:39.706Z,74.40
2022-12-05T10:32:48.374Z,79.10
2022-12-05T10:35:26.961Z,81.20
2022-12-05T10:38:22.682Z,81.30
2022-12-05T10:40:54.382Z,81.30
2022-12-05T10:43:30.397Z,84.70
2022-12-05T10:45:58.117Z,94.70
2022-12-05T10:48:25.782Z,94.80
2022-12-05T10:50:55.840Z,97.40
2022-12-05T10:53:31.859Z,99.90
2022-12-05T10:58:57.747Z,96.90
2022-12-05T11:01:26.474Z,90.50
2022-12-05T11:04:22.265Z,92.90
2022-12-05T11:07:07.642Z,93.10
2022-12-05T11:09:37.480Z,94.90
2022-12-05T11:12:22.137Z,94.90
2022-12-05T11:15:22.789Z,71.40
2022-12-05T11:17:50.424Z,71.50
2022-12-05T11:20:20.197Z,66.00
2022-12-05T11:22:50.329Z,61.00
2022-12-05T11:25:22.986Z,54.00
2022-12-05T11:27:49.859Z,47.10
2022-12-05T11:30:21.945Z,49.60
2022-12-05T11:32:50.119Z,38.00
2022-12-05T11:35:22.708Z,26.80
2022-12-05T11:38:06.408Z,32.00
2022-12-05T11:40:51.700Z,26.80
2022-12-05T11:43:32.960Z,1.00
2022-12-05T11:46:26.685Z,1.00
2022-12-05T11:49:15.008Z,1.00
2022-12-05T11:51:53.256Z,1.00
2022-12-05T11:54:56.668Z,1.00
2022-12-05T11:57:32.685Z,1.00
2022-12-05T12:00:09.654Z,1.00
2022-12-05T12:03:13.211Z,1.00
2022-12-05T12:05:59.788Z,1.00
2022-12-05T12:08:36.860Z,1.00
2022-12-05T12:11:21.606Z,7.00
2022-12-05T12:14:01.888Z,7.00
2022-12-05T12:17:10.264Z,7.00
2022-12-05T12:19:48.295Z,17.10
2022-12-05T12:22:34.843Z,16.20
2022-12-05T12:25:31.932Z,6.90
2022-12-05T12:28:29.284Z,17.10
2022-12-05T12:30:59.360Z,1.00
2022-12-05T12:33:48.484Z,1.00
2022-12-05T12:36:50.542Z,1.00
2022-12-05T12:39:53.445Z,2.10
2022-12-05T12:42:53.536Z,1.00
2022-12-05T12:45:29.829Z,1.00
2022-12-05T12:48:15.972Z,1.00
2022-12-05T12:50:45.273Z,12.10
2022-12-05T12:53:37.836Z,19.70
2022-12-05T12:56:27.908Z,36.40
2022-12-05T12:59:07.818Z,40.60
2022-12-05T13:01:49.869Z,49.50
2022-12-05T13:04:28.445Z,43.60
2022-12-05T13:07:08.277Z,49.40
2022-12-05T13:09:54.242Z,60.60
2022-12-05T13:12:29.421Z,60.60
2022-12-05T13:15:10.833Z,68.70
2022-12-05T13:17:41.637Z,73.50
2022-12-05T13:20:16.904Z,66.20
2022-12-05T13:22:45.270Z,52.20
2022-12-05T13:25:17.556Z,60.70
2022-12-05T13:27:56.717Z,60.30
2022-12-05T13:30:23.954Z,61.20
2022-12-05T13:32:57.621Z,62.80
2022-12-05T13:35:58.394Z,62.50
2022-12-05T13:38:53.173Z,55.10
2022-12-05T13:41:38.688Z,53.60
2022-12-05T13:44:12.207Z,31.70
2022-12-05T13:46:42.319Z,37.60
2022-12-05T13:49:29.852Z,47.40
2022-12-05T13:52:09.756Z,43.60
2022-12-05T13:54:44.328Z,43.60
2022-12-05T13:57:40.192Z,49.50
2022-12-05T14:00:10.134Z,52.20
2022-12-05T14:02:46.413Z,43.70
2022-12-05T14:05:18.980Z,17.10
2022-12-05T14:08:00.878Z,6.80
2022-12-05T14:10:35.905Z,17.00
2022-12-05T14:13:23.696Z,8.70
2022-12-05T14:15:51.904Z,21.80
2022-12-05T14:18:43.101Z,16.90
2022-12-05T14:21:43.755Z,1.70
2022-12-05T14:24:19.662Z,1.60
2022-12-05T14:27:10.597Z,1.00
2022-12-05T14:30:11.238Z,1.80
2022-12-05T14:32:41.142Z,15.50
2022-12-05T14:35:10.864Z,30.60
2022-12-05T14:38:02.672Z,26.50
2022-12-05T14:40:38.031Z,24.50
2022-12-05T14:43:08.664Z,26.50
2022-12-05T14:45:41.156Z,43.50
2022-12-05T14:48:14.234Z,37.60
2022-12-05T14:50:44.592Z,26.70
2022-12-05T14:53:31.200Z,26.50
2022-12-05T14:56:00.827Z,38.20
2022-12-05T14:58:30.363Z,49.30
2022-12-05T15:01:00.356Z,38.80
2022-12-05T15:03:38.281Z,40.90
2022-12-05T15:06:10.451Z,42.80
2022-12-05T15:08:49.087Z,37.60
2022-12-05T15:11:30.444Z,49.30
2022-12-05T15:14:00.942Z,49.40
2022-12-05T15:16:29.987Z,24.50
2022-12-05T15:19:03.652Z,26.50
2022-12-05T15:21:41.353Z,31.50
2022-12-05T15:24:16.486Z,32.40
2022-12-05T15:26:56.592Z,16.80
2022-12-05T15:29:23.635Z,35.80
2022-12-05T15:31:57.993Z,37.50
2022-12-05T15:34:28.681Z,43.40
2022-12-05T15:37:04.144Z,43.30
2022-12-05T15:39:49.511Z,49.30
2022-12-05T15:42:16.580Z,55.20
2022-12-05T15:44:43.407Z,45.20
2022-12-05T15:47:23.216Z,59.10
2022-12-05T15:49:51.072Z,49.30
2022-12-05T15:52:39.354Z,39.70
2022-12-05T15:55:12.598Z,49.20
2022-12-05T15:57:54.979Z,49.20
2022-12-05T16:00:22.300Z,65.70
2022-12-05T16:03:12.103Z,65.90
2022-12-05T16:05:51.786Z,60.60
2022-12-05T16:08:19.225Z,60.50
2022-12-05T16:10:46.235Z,65.80
2022-12-05T16:13:16.045Z,71.00
2022-12-05T16:15:52.496Z,76.10
2022-12-05T16:18:28.811Z,71.00
2022-12-05T16:20:56.067Z,65.20
2022-12-05T16:23:32.246Z,71.00
2022-12-05T16:26:20.506Z,74.40
2022-12-05T16:29:01.550Z,73.60
2022-12-05T16:31:33.758Z,70.50
2022-12-05T16:34:07.510Z,60.60
2022-12-05T16:36:35.173Z,66.50
2022-12-05T16:39:07.207Z,60.60
2022-12-05T16:41:38.971Z,49.20
2022-12-05T16:44:26.696Z,58.10
2022-12-05T16:46:54.080Z,63.90
2022-12-05T16:49:21.030Z,58.60
2022-12-05T16:51:59.679Z,60.60
2022-12-05T16:54:26.526Z,60.00
2022-12-05T16:56:53.509Z,44.50
2022-12-05T16:59:32.047Z,53.40
2022-12-05T17:01:59.152Z,49.20
2022-12-05T17:04:26.238Z,51.60
2022-12-05T17:06:53.158Z,65.80
2022-12-05T17:09:20.082Z,60.60
2022-12-05T17:11:49.499Z,52.80
2022-12-05T17:14:18.656Z,60.50
2022-12-05T17:16:45.800Z,60.50
2022-12-05T17:19:13.406Z,66.10
2022-12-05T17:21:44.496Z,51.60
2022-12-05T17:24:20.199Z,49.20
2022-12-05T17:26:47.502Z,60.50
2022-12-05T17:29:14.295Z,49.30
2022-12-05T17:31:41.151Z,54.90
2022-12-05T17:34:15.939Z,55.10
2022-12-05T17:36:43.817Z,55.20
2022-12-05T17:39:10.675Z,56.00
2022-12-05T17:41:37.543Z,66.30
2022-12-05T17:44:05.624Z,65.60
2022-12-05T17:46:32.977Z,51.40
2022-12-05T17:49:00.309Z,55.10
2022-12-05T17:51:27.521Z,49.20
2022-12-05T17:53:54.569Z,41.30
2022-12-05T17:56:21.810Z,55.30
2022-12-05T17:58:49.571Z,49.20
2022-12-05T18:01:20.150Z,60.50
2022-12-05T18:03:47.781Z,49.10
2022-12-05T18:06:15.385Z,60.30
2022-12-05T18:08:44.799Z,54.00
2022-12-05T18:11:15.322Z,58.80
2022-12-05T18:13:42.132Z,58.40
2022-12-05T18:16:09.360Z,73.10
2022-12-05T18:18:36.717Z,70.90
2022-12-05T18:21:08.561Z,75.20
2022-12-05T18:23:36.678Z,70.90
2022-12-05T18:26:05.478Z,70.80
2022-12-05T18:28:36.273Z,75.20
2022-12-05T18:31:08.648Z,83.30
2022-12-05T18:33:35.590Z,80.90
2022-12-05T18:36:08.912Z,83.10
2022-12-05T18:38:36.719Z,86.00
2022-12-05T18:41:04.932Z,90.30
2022-12-05T18:43:32.417Z,92.40
2022-12-05T18:46:01.290Z,97.50
2022-12-05T18:48:47.820Z,96.70
2022-12-05T18:51:16.609Z,98.70
2022-12-05T18:53:51.689Z,99.90
2022-12-05T18:56:23.209Z,99.90
2022-12-05T18:58:58.161Z,99.90
2022-12-05T19:01:26.210Z,99.90
2022-12-05T19:03:53.635Z,98.80
2022-12-05T19:06:22.958Z,98.70
2022-12-05T19:08:52.929Z,96.90
2022-12-05T19:11:20.107Z,98.80
2022-12-05T19:13:49.960Z,86.00
2022-12-05T19:16:19.665Z,71.00
2022-12-05T19:18:47.304Z,54.70
2022-12-05T19:21:14.200Z,24.90
2022-12-05T19:23:41.533Z,26.20
2022-12-05T19:26:10.033Z,25.70
2022-12-05T19:28:38.060Z,16.80
2022-12-05T19:31:07.685Z,16.20
2022-12-05T19:33:36.730Z,32.30
2022-12-05T19:36:12.702Z,25.30
2022-12-05T19:38:41.754Z,26.50
2022-12-05T19:41:10.708Z,31.80
2022-12-05T19:43:38.487Z,42.40
2022-12-05T19:46:12.232Z,26.50
2022-12-05T19:48:39.716Z,11.70
2022-12-05T19:51:07.112Z,6.50
2022-12-05T19:53:36.679Z,14.70
2022-12-05T19:56:07.232Z,31.50
2022-12-05T19:58:35.921Z,31.30
2022-12-05T20:01:24.707Z,16.70
2022-12-05T20:03:54.586Z,31.30
2022-12-05T20:06:21.980Z,6.60
2022-12-05T20:08:52.295Z,6.60
2022-12-05T20:11:25.034Z,1.40
2022-12-05T20:13:53.931Z,1.30
2022-12-05T20:16:22.431Z,6.60
2022-12-05T20:18:50.286Z,6.70
2022-12-05T20:21:22.062Z,6.30
2022-12-05T20:23:49.451Z,13.10
2022-12-05T20:26:20.005Z,6.70
2022-12-05T20:28:47.479Z,1.00
2022-12-05T20:31:17.548Z,1.00
2022-12-05T20:33:45.225Z,1.00
2022-12-05T20:36:14.047Z,1.00
2022-12-05T20:38:41.883Z,1.00
2022-12-05T20:41:17.242Z,1.00
2022-12-05T20:43:45.557Z,1.00
2022-12-05T20:46:18.686Z,1.00
2022-12-05T20:48:46.807Z,1.00
2022-12-05T20:51:34.093Z,1.00
2022-12-05T20:54:03.017Z,1.00
2022-12-05T20:56:32.475Z,1.00
2022-12-05T20:59:02.146Z,1.00
2022-12-05T21:01:30.849Z,1.00
2022-12-05T21:03:57.970Z,1.00
2022-12-05T21:06:27.166Z,1.00
2022-12-05T21:08:54.975Z,1.00
2022-12-05T21:11:23.553Z,1.00
2022-12-05T21:13:51.104Z,1.00
2022-12-05T21:16:20.946Z,1.00
2022-12-05T21:18:48.237Z,1.00
2022-12-05T21:21:17.861Z,1.00
2022-12-05T21:23:46.442Z,1.00
2022-12-05T21:26:16.190Z,1.00
2022-12-05T21:28:45.263Z,1.00
2022-12-05T21:31:13.622Z,1.00
2022-12-05T21:33:42.226Z,1.00
2022-12-05T21:36:09.807Z,1.00
2022-12-05T21:38:36.622Z,1.00
2022-12-05T21:41:05.292Z,1.00
2022-12-05T21:43:33.985Z,1.00
2022-12-05T21:46:01.207Z,1.00
2022-12-05T21:48:30.713Z,1.00
2022-12-05T21:50:57.753Z,1.00
2022-12-05T21:53:24.670Z,1.00
2022-12-05T21:56:23.133Z,1.00
2022-12-05T21:58:50.969Z,1.00
2022-12-05T22:01:22.976Z,1.00
2022-12-05T22:03:54.711Z,1.00
2022-12-05T22:06:21.823Z,1.00
2022-12-05T22:08:48.808Z,1.00
2022-12-05T22:11:18.631Z,1.00
2022-12-05T22:13:46.215Z,1.00
2022-12-05T22:16:13.606Z,1.00
2022-12-05T22:18:40.989Z,1.30
2022-12-05T22:21:11.540Z,6.50
2022-12-05T22:23:38.661Z,26.30
2022-12-05T22:26:09.138Z,26.40
2022-12-05T22:28:36.478Z,20.90
2022-12-05T22:31:06.137Z,30.60
2022-12-05T22:33:35.718Z,38.90
2022-12-05T22:36:04.841Z,41.40
2022-12-05T22:38:33.778Z,16.80
2022-12-05T22:41:03.131Z,1.00
2022-12-05T22:43:31.299Z,7.50
2022-12-05T22:45:59.346Z,1.00
2022-12-05T22:48:26.735Z,1.00
2022-12-05T22:50:54.959Z,1.00
2022-12-05T22:53:23.584Z,1.00
2022-12-05T22:55:53.298Z,1.00
2022-12-05T22:58:20.410Z,1.00
2022-12-05T23:00:47.288Z,1.00
2022-12-05T23:03:15.180Z,1.00
2022-12-05T23:05:43.316Z,1.00
2022-12-05T23:08:12.203Z,1.00
2022-12-05T23:10:40.104Z,6.60
2022-12-05T23:13:07.757Z,42.50
2022-12-05T23:15:37.337Z,34.00
2022-12-05T23:18:04.919Z,2.40
2022-12-05T23:20:32.484Z,1.00
2022-12-05T23:22:59.341Z,1.00
2022-12-05T23:25:26.102Z,1.00
2022-12-05T23:27:52.930Z,1.00
2022-12-05T23:30:19.784Z,1.00
2022-12-05T23:32:46.684Z,1.00
2022-12-05T23:35:13.523Z,1.00
2022-12-05T23:37:40.323Z,1.00
2022-12-05T23:40:07.917Z,1.00
2022-12-05T23:42:34.900Z,1.00
2022-12-05T23:45:01.676Z,1.00
2022-12-05T23:47:28.504Z,1.00
2022-12-05T23:49:55.689Z,1.00
2022-12-05T23:52:22.623Z,1.00
2022-12-05T23:54:49.472Z,1.00
2022-12-05T23:57:17.806Z,1.00
2022-12-05T23:59:45.764Z,1.00
